createdAt,value
2018-11-13T00:00:32.670Z,10.55
2018-11-13T00:03:01.935Z,10.59
2018-11-13T00:05:30.453Z,10.72
2018-11-13T00:07:58.896Z,10.71
2018-11-13T00:10:27.301Z,10.61
2018-11-13T00:12:55.725Z,10.60
2018-11-13T00:15:24.152Z,10.59
2018-11-13T00:17:52.546Z,10.56
2018-11-13T00:20:21.055Z,10.55
2018-11-13T00:22:49.437Z,10.56
2018-11-13T00:25:19.044Z,10.55
2018-11-13T00:27:47.400Z,10.59
2018-11-13T00:30:20.425Z,10.61
2018-11-13T00:32:48.850Z,10.62
2018-11-13T00:35:18.049Z,10.61
2018-11-13T00:37:47.037Z,10.55
2018-11-13T00:40:15.813Z,10.51
2018-11-13T00:42:45.051Z,10.49
2018-11-13T00:45:13.509Z,10.49
2018-11-13T00:47:41.914Z,10.47
2018-11-13T00:50:13.030Z,10.50
2018-11-13T00:52:42.233Z,10.53
2018-11-13T00:55:11.002Z,10.51
2018-11-13T00:57:39.765Z,10.48
2018-11-13T01:00:11.381Z,10.47
2018-11-13T01:02:40.007Z,10.33
2018-11-13T01:05:10.302Z,10.48
2018-11-13T01:07:38.745Z,10.49
2018-11-13T01:10:08.513Z,10.54
2018-11-13T01:12:36.989Z,10.57
2018-11-13T01:15:05.906Z,10.64
2018-11-13T01:17:34.291Z,10.66
2018-11-13T01:20:02.676Z,10.67
2018-11-13T01:22:31.107Z,10.76
2018-11-13T01:24:59.449Z,10.75
2018-11-13T01:27:27.857Z,10.66
2018-11-13T01:29:58.201Z,10.54
2018-11-13T01:32:28.149Z,10.50
2018-11-13T01:34:56.626Z,10.43
2018-11-13T01:37:25.545Z,10.41
2018-11-13T01:39:54.342Z,10.40
2018-11-13T01:42:22.765Z,10.37
2018-11-13T01:44:51.113Z,10.32
2018-11-13T01:47:19.534Z,10.33
2018-11-13T01:49:47.921Z,10.28
2018-11-13T01:52:16.673Z,10.28
2018-11-13T01:54:45.066Z,10.26
2018-11-13T01:57:13.850Z,10.26
2018-11-13T01:59:41.861Z,10.22
2018-11-13T02:02:10.286Z,10.40
2018-11-13T02:04:38.765Z,10.56
2018-11-13T02:07:07.222Z,10.69
2018-11-13T02:09:35.761Z,10.77
2018-11-13T02:12:04.261Z,10.93
2018-11-13T02:14:32.697Z,10.99
2018-11-13T02:17:01.098Z,11.13
2018-11-13T02:19:29.502Z,11.17
2018-11-13T02:21:57.966Z,11.25
2018-11-13T02:24:26.353Z,11.22
2018-11-13T02:26:54.765Z,11.24
2018-11-13T02:29:23.181Z,11.18
2018-11-13T02:31:51.601Z,11.18
2018-11-13T02:34:20.001Z,11.26
2018-11-13T02:36:48.433Z,11.14
2018-11-13T02:39:16.838Z,11.04
2018-11-13T02:41:45.255Z,11.08
2018-11-13T02:44:13.670Z,11.08
2018-11-13T02:46:42.098Z,11.12
2018-11-13T02:49:10.751Z,11.06
2018-11-13T02:51:39.237Z,10.83
2018-11-13T02:54:07.644Z,10.90
2018-11-13T02:56:36.127Z,10.92
2018-11-13T02:59:04.681Z,10.81
2018-11-13T03:01:33.105Z,10.84
2018-11-13T03:04:01.514Z,11.01
2018-11-13T03:06:29.949Z,11.05
2018-11-13T03:08:58.359Z,10.97
2018-11-13T03:11:26.789Z,10.89
2018-11-13T03:13:55.420Z,10.98
2018-11-13T03:16:23.657Z,11.12
2018-11-13T03:18:52.227Z,11.14
2018-11-13T03:21:20.726Z,11.07
2018-11-13T03:23:49.293Z,11.16
2018-11-13T03:26:17.856Z,11.25
2018-11-13T03:28:46.338Z,11.25
2018-11-13T03:31:14.924Z,11.22
2018-11-13T03:33:43.246Z,11.27
2018-11-13T03:36:11.656Z,11.34
2018-11-13T03:38:40.093Z,11.25
2018-11-13T03:41:08.501Z,11.16
2018-11-13T03:43:36.917Z,11.10
2018-11-13T03:46:05.484Z,11.07
2018-11-13T03:48:34.213Z,11.11
2018-11-13T03:51:02.594Z,11.12
2018-11-13T03:53:31.405Z,11.14
2018-11-13T03:55:59.913Z,11.15
2018-11-13T03:58:28.405Z,11.20
2018-11-13T04:00:56.781Z,11.19
2018-11-13T04:03:25.473Z,11.22
2018-11-13T04:05:53.937Z,11.21
2018-11-13T04:08:22.533Z,11.22
2018-11-13T04:10:50.909Z,11.31
2018-11-13T04:13:19.290Z,11.30
2018-11-13T04:15:47.987Z,11.30
2018-11-13T04:18:16.457Z,11.28
2018-11-13T04:20:45.004Z,11.28
2018-11-13T04:23:13.554Z,11.20
2018-11-13T04:25:41.970Z,11.20
2018-11-13T04:28:10.392Z,11.16
2018-11-13T04:30:38.993Z,11.15
2018-11-13T04:33:07.486Z,11.08
2018-11-13T04:35:35.998Z,10.96
2018-11-13T04:38:04.417Z,10.99
2018-11-13T04:40:32.774Z,10.97
2018-11-13T04:43:01.182Z,10.99
2018-11-13T04:45:29.801Z,11.11
2018-11-13T04:47:58.246Z,11.02
2018-11-13T04:50:26.693Z,11.00
2018-11-13T04:52:55.072Z,11.05
2018-11-13T04:55:23.602Z,11.06
2018-11-13T04:57:52.065Z,11.13
2018-11-13T05:00:24.128Z,11.09
2018-11-13T05:02:52.679Z,11.17
2018-11-13T05:05:21.968Z,11.23
2018-11-13T05:07:51.691Z,11.25
2018-11-13T05:10:20.311Z,11.30
2018-11-13T05:12:49.118Z,11.30
2018-11-13T05:15:18.529Z,11.20
2018-11-13T05:17:47.917Z,11.22
2018-11-13T05:20:17.757Z,11.29
2018-11-13T05:22:46.196Z,11.34
2018-11-13T05:25:15.969Z,11.33
2018-11-13T05:27:44.591Z,11.35
2018-11-13T05:30:14.467Z,11.34
2018-11-13T05:32:42.943Z,11.34
2018-11-13T05:35:12.585Z,11.29
2018-11-13T05:37:42.052Z,11.28
2018-11-13T05:40:13.305Z,11.29
2018-11-13T05:42:42.022Z,11.24
2018-11-13T05:45:12.145Z,11.27
2018-11-13T05:47:40.686Z,11.27
2018-11-13T05:50:10.902Z,11.30
2018-11-13T05:52:40.101Z,11.29
2018-11-13T05:55:09.227Z,11.28
2018-11-13T05:57:37.844Z,11.25
2018-11-13T06:00:09.286Z,11.24
2018-11-13T06:02:38.379Z,11.23
2018-11-13T06:05:06.852Z,11.24
2018-11-13T06:07:35.321Z,11.27
2018-11-13T06:10:03.837Z,11.34
2018-11-13T06:12:32.740Z,11.34
2018-11-13T06:15:01.134Z,11.32
2018-11-13T06:17:29.813Z,11.24
2018-11-13T06:19:58.465Z,11.21
2018-11-13T06:22:27.094Z,11.20
2018-11-13T06:24:55.703Z,11.19
2018-11-13T06:27:24.186Z,11.12
2018-11-13T06:29:52.683Z,11.11
2018-11-13T06:32:21.277Z,11.01
2018-11-13T06:34:49.782Z,10.95
2018-11-13T06:37:18.201Z,10.92
2018-11-13T06:39:46.641Z,10.88
2018-11-13T06:42:15.325Z,10.77
2018-11-13T06:44:43.858Z,10.68
2018-11-13T06:47:12.666Z,10.78
2018-11-13T06:49:41.149Z,10.71
2018-11-13T06:52:10.571Z,10.67
2018-11-13T06:55:34.591Z,10.65
2018-11-13T06:58:03.383Z,10.67
2018-11-13T07:00:31.809Z,10.67
2018-11-13T07:03:00.865Z,10.73
2018-11-13T07:05:29.430Z,10.58
2018-11-13T07:07:58.186Z,10.64
2018-11-13T07:10:32.305Z,10.58
2018-11-13T07:13:00.961Z,10.57
2018-11-13T07:15:30.702Z,10.73
2018-11-13T07:18:00.889Z,10.74
2018-11-13T07:20:30.699Z,10.67
2018-11-13T07:22:59.094Z,10.76
2018-11-13T07:25:28.263Z,10.76
2018-11-13T07:27:56.531Z,10.73
2018-11-13T07:30:25.661Z,10.82
2018-11-13T07:32:54.027Z,10.85
2018-11-13T07:35:23.149Z,10.86
2018-11-13T07:37:53.917Z,10.84
2018-11-13T07:40:22.426Z,10.82
2018-11-13T07:42:50.867Z,10.90
2018-11-13T07:45:19.781Z,10.94
2018-11-13T07:47:48.682Z,10.99
2018-11-13T07:50:17.227Z,11.07
2018-11-13T07:52:45.902Z,11.12
2018-11-13T07:55:15.501Z,11.16
2018-11-13T07:57:44.153Z,11.18
2018-11-13T08:00:14.265Z,11.32
2018-11-13T08:02:44.060Z,11.40
2018-11-13T08:05:12.872Z,11.38
2018-11-13T08:07:41.508Z,11.44
2018-11-13T08:10:11.255Z,11.61
2018-11-13T08:12:39.905Z,11.72
2018-11-13T08:15:10.598Z,11.74
2018-11-13T08:17:39.226Z,11.86
2018-11-13T08:20:09.670Z,11.85
2018-11-13T08:22:38.273Z,11.78
2018-11-13T08:25:08.645Z,11.73
2018-11-13T08:27:37.939Z,11.69
2018-11-13T08:30:09.645Z,11.82
2018-11-13T08:32:38.304Z,11.88
2018-11-13T08:35:07.581Z,11.97
2018-11-13T08:37:36.060Z,11.99
2018-11-13T08:40:05.617Z,12.01
2018-11-13T08:42:34.349Z,12.00
2018-11-13T08:45:02.916Z,12.18
2018-11-13T08:47:31.434Z,12.23
2018-11-13T08:50:00.028Z,12.33
2018-11-13T08:52:28.579Z,12.47
2018-11-13T08:54:57.018Z,12.54
2018-11-13T08:57:25.382Z,12.53
2018-11-13T08:59:54.173Z,12.67
2018-11-13T09:02:22.685Z,12.69
2018-11-13T09:04:51.460Z,12.76
2018-11-13T09:07:19.858Z,12.78
2018-11-13T09:09:48.313Z,12.83
2018-11-13T09:12:17.475Z,12.94
2018-11-13T09:14:45.848Z,12.96
2018-11-13T09:17:14.413Z,13.21
2018-11-13T09:19:42.866Z,13.24
2018-11-13T09:22:11.221Z,13.18
2018-11-13T09:24:39.649Z,13.14
2018-11-13T09:27:08.114Z,13.05
2018-11-13T09:29:36.618Z,13.04
2018-11-13T09:32:05.069Z,12.94
2018-11-13T09:34:33.595Z,12.97
2018-11-13T09:37:02.265Z,12.98
2018-11-13T09:39:30.871Z,13.01
2018-11-13T09:41:59.396Z,12.96
2018-11-13T09:44:27.838Z,12.93
2018-11-13T09:46:56.342Z,13.00
2018-11-13T09:49:24.719Z,13.00
2018-11-13T09:51:53.169Z,13.02
2018-11-13T09:54:21.627Z,13.07
2018-11-13T09:56:50.073Z,13.09
2018-11-13T09:59:18.916Z,13.04
2018-11-13T10:01:48.923Z,13.09
2018-11-13T10:04:17.762Z,13.21
2018-11-13T10:06:45.647Z,13.25
2018-11-13T10:09:14.787Z,13.28
2018-11-13T10:11:44.219Z,13.32
2018-11-13T10:14:13.789Z,13.37
2018-11-13T10:16:42.457Z,13.42
2018-11-13T10:19:11.542Z,13.45
2018-11-13T10:21:40.065Z,13.46
2018-11-13T10:24:09.121Z,13.56
2018-11-13T10:26:38.219Z,13.53
2018-11-13T10:29:06.745Z,13.65
2018-11-13T10:31:35.173Z,13.50
2018-11-13T10:34:03.666Z,13.53
2018-11-13T10:36:32.242Z,13.58
2018-11-13T10:39:00.689Z,13.53
2018-11-13T10:41:29.427Z,13.54
2018-11-13T10:43:57.776Z,13.61
2018-11-13T10:46:26.173Z,13.43
2018-11-13T10:48:55.689Z,13.36
2018-11-13T10:51:24.472Z,13.35
2018-11-13T10:53:53.012Z,13.36
2018-11-13T10:56:24.298Z,13.42
2018-11-13T10:58:53.150Z,13.51
2018-11-13T11:01:26.734Z,13.46
2018-11-13T11:04:01.230Z,13.43
2018-11-13T11:06:31.651Z,13.53
2018-11-13T11:09:00.037Z,13.57
2018-11-13T11:11:28.528Z,13.60
2018-11-13T11:13:57.048Z,13.61
2018-11-13T11:16:25.281Z,13.60
2018-11-13T11:18:53.730Z,13.64
2018-11-13T11:21:22.058Z,13.73
2018-11-13T11:23:50.500Z,13.66
2018-11-13T11:26:18.857Z,13.69
2018-11-13T11:28:47.210Z,13.69
2018-11-13T11:31:15.573Z,13.70
2018-11-13T11:33:43.933Z,13.73
2018-11-13T11:36:12.305Z,13.81
2018-11-13T11:38:40.694Z,13.87
2018-11-13T11:41:09.097Z,13.74
2018-11-13T11:43:37.581Z,13.74
2018-11-13T11:46:06.121Z,13.85
2018-11-13T11:48:34.494Z,13.80
2018-11-13T11:51:02.882Z,13.94
2018-11-13T11:53:31.241Z,14.17
2018-11-13T11:55:59.659Z,14.03
2018-11-13T11:58:28.018Z,14.05
2018-11-13T12:00:56.421Z,13.98
2018-11-13T12:03:24.793Z,14.01
2018-11-13T12:05:53.210Z,14.04
2018-11-13T12:08:21.585Z,13.97
2018-11-13T12:10:49.946Z,14.01
2018-11-13T12:13:18.340Z,13.81
2018-11-13T12:15:46.701Z,13.90
2018-11-13T12:18:15.113Z,14.00
2018-11-13T12:20:43.518Z,14.01
2018-11-13T12:23:11.925Z,14.10
2018-11-13T12:25:40.301Z,14.14
2018-11-13T12:28:08.669Z,14.18
2018-11-13T12:30:37.164Z,14.18
2018-11-13T12:33:06.251Z,14.30
2018-11-13T12:35:34.618Z,14.25
2018-11-13T12:38:02.997Z,14.42
2018-11-13T12:40:31.377Z,14.43
2018-11-13T12:42:59.777Z,14.39
2018-11-13T12:45:28.169Z,14.19
2018-11-13T12:47:56.553Z,14.17
2018-11-13T12:50:24.970Z,14.11
2018-11-13T12:52:53.386Z,14.05
2018-11-13T12:55:23.160Z,14.00
2018-11-13T12:57:51.570Z,14.06
2018-11-13T13:00:22.233Z,14.04
2018-11-13T13:02:50.718Z,14.19
2018-11-13T13:05:19.149Z,14.34
2018-11-13T13:07:47.565Z,14.35
2018-11-13T13:10:16.884Z,14.24
2018-11-13T13:12:45.326Z,14.17
2018-11-13T13:15:15.292Z,14.09
2018-11-13T13:17:43.909Z,14.12
2018-11-13T13:20:14.746Z,14.21
2018-11-13T13:22:43.868Z,14.32
2018-11-13T13:25:13.990Z,14.64
2018-11-13T13:27:42.425Z,14.66
2018-11-13T13:30:14.038Z,14.96
2018-11-13T13:32:42.458Z,15.24
2018-11-13T13:35:44.716Z,15.06
2018-11-13T13:38:13.180Z,14.95
2018-11-13T13:40:42.633Z,14.90
2018-11-13T13:43:12.068Z,15.00
2018-11-13T13:45:41.274Z,15.23
2018-11-13T13:48:09.693Z,15.59
2018-11-13T13:50:38.481Z,15.28
2018-11-13T13:53:07.498Z,15.68
2018-11-13T13:55:35.888Z,15.51
2018-11-13T13:58:04.317Z,14.81
2018-11-13T14:00:32.935Z,14.80
2018-11-13T14:03:02.277Z,15.20
2018-11-13T14:05:30.679Z,15.47
2018-11-13T14:07:59.155Z,15.30
2018-11-13T14:10:27.546Z,15.38
2018-11-13T14:12:55.926Z,15.55
2018-11-13T14:15:24.408Z,15.46
2018-11-13T14:17:52.833Z,14.67
2018-11-13T14:20:21.582Z,14.34
2018-11-13T14:22:50.096Z,14.47
2018-11-13T14:25:18.476Z,14.88
2018-11-13T14:27:47.286Z,15.00
2018-11-13T14:30:20.065Z,14.65
2018-11-13T14:32:49.137Z,14.42
2018-11-13T14:35:17.745Z,14.17
2018-11-13T14:37:46.225Z,14.03
2018-11-13T14:40:24.830Z,13.90
2018-11-13T14:42:53.253Z,13.73
2018-11-13T14:45:22.619Z,13.63
2018-11-13T14:47:51.569Z,13.51
2018-11-13T14:50:21.358Z,13.42
2018-11-13T14:52:50.337Z,13.35
2018-11-13T14:55:22.136Z,13.31
2018-11-13T14:57:50.793Z,13.29
2018-11-13T15:00:21.109Z,13.25
2018-11-13T15:02:50.797Z,13.20
2018-11-13T15:05:20.449Z,13.19
2018-11-13T15:07:49.967Z,13.17
2018-11-13T15:10:24.661Z,13.01
2018-11-13T15:12:53.071Z,12.88
2018-11-13T15:15:21.505Z,12.80
2018-11-13T15:17:49.887Z,12.69
2018-11-13T15:20:18.254Z,12.71
2018-11-13T15:22:46.650Z,12.70
2018-11-13T15:25:15.812Z,12.63
2018-11-13T15:27:45.068Z,12.56
2018-11-13T15:30:16.675Z,12.46
2018-11-13T15:32:46.769Z,12.42
2018-11-13T15:35:15.169Z,12.25
2018-11-13T15:37:43.957Z,12.20
2018-11-13T15:40:15.151Z,12.14
2018-11-13T15:42:44.117Z,12.03
2018-11-13T15:45:13.903Z,11.90
2018-11-13T15:47:42.734Z,11.81
2018-11-13T15:50:14.780Z,11.78
2018-11-13T15:52:43.557Z,11.71
2018-11-13T15:55:12.648Z,11.53
2018-11-13T15:57:41.813Z,11.51
2018-11-13T16:00:19.445Z,11.38
2018-11-13T16:02:47.898Z,11.29
2018-11-13T16:05:21.459Z,11.20
2018-11-13T16:07:50.449Z,11.07
2018-11-13T16:10:18.858Z,11.04
2018-11-13T16:12:48.172Z,10.92
2018-11-13T16:15:17.294Z,10.79
2018-11-13T16:17:45.726Z,10.76
2018-11-13T16:20:14.117Z,10.70
2018-11-13T16:22:42.529Z,10.72
2018-11-13T16:25:10.970Z,10.63
2018-11-13T16:27:39.969Z,10.61
2018-11-13T16:30:10.683Z,10.49
2018-11-13T16:32:39.040Z,10.42
2018-11-13T16:35:09.277Z,10.32
2018-11-13T16:37:38.078Z,10.20
2018-11-13T16:40:08.240Z,10.16
2018-11-13T16:42:36.597Z,10.14
2018-11-13T16:45:05.657Z,10.14
2018-11-13T16:47:34.043Z,10.05
2018-11-13T16:50:02.509Z,10.04
2018-11-13T16:52:31.001Z,9.79
2018-11-13T16:54:59.406Z,9.68
2018-11-13T16:57:27.788Z,9.73
2018-11-13T16:59:56.283Z,9.66
2018-11-13T17:02:24.726Z,9.63
2018-11-13T17:04:53.069Z,9.66
2018-11-13T17:07:21.568Z,9.58
2018-11-13T17:09:49.942Z,9.78
2018-11-13T17:12:18.319Z,9.90
2018-11-13T17:14:46.729Z,9.88
2018-11-13T17:17:15.146Z,9.94
2018-11-13T17:19:43.661Z,10.01
2018-11-13T17:22:11.986Z,10.00
2018-11-13T17:24:40.365Z,10.10
2018-11-13T17:27:08.742Z,10.16
2018-11-13T17:29:37.258Z,10.11
2018-11-13T17:32:05.926Z,10.08
2018-11-13T17:34:34.314Z,10.04
2018-11-13T17:37:02.754Z,10.07
2018-11-13T17:39:31.181Z,10.07
2018-11-13T17:41:59.568Z,10.06
2018-11-13T17:44:27.978Z,10.06
2018-11-13T17:46:56.342Z,9.97
2018-11-13T17:49:24.729Z,9.83
2018-11-13T17:51:53.122Z,9.77
2018-11-13T17:54:23.310Z,9.65
2018-11-13T17:56:49.963Z,9.65
2018-11-13T17:59:18.393Z,9.52
2018-11-13T18:01:46.762Z,9.60
2018-11-13T18:04:15.158Z,9.56
2018-11-13T18:06:43.605Z,9.32
2018-11-13T18:09:13.865Z,9.30
2018-11-13T18:11:42.277Z,9.34
2018-11-13T18:14:10.768Z,9.42
2018-11-13T18:16:39.173Z,9.25
2018-11-13T18:19:07.549Z,9.29
2018-11-13T18:21:36.041Z,9.29
2018-11-13T18:24:04.407Z,9.26
2018-11-13T18:26:32.857Z,9.18
2018-11-13T18:29:01.269Z,9.12
2018-11-13T18:31:29.689Z,9.24
2018-11-13T18:33:58.070Z,9.00
2018-11-13T18:36:26.454Z,8.74
2018-11-13T18:38:54.946Z,8.42
2018-11-13T18:41:23.295Z,8.23
2018-11-13T18:43:51.686Z,7.91
2018-11-13T18:46:20.094Z,7.69
2018-11-13T18:48:48.642Z,7.55
2018-11-13T18:51:17.144Z,7.43
2018-11-13T18:53:45.571Z,7.32
2018-11-13T18:56:13.933Z,7.25
2018-11-13T18:58:43.413Z,7.21
2018-11-13T19:01:14.913Z,7.21
2018-11-13T19:03:43.997Z,7.20
2018-11-13T19:06:12.401Z,7.09
2018-11-13T19:08:40.775Z,7.09
2018-11-13T19:11:09.226Z,7.02
2018-11-13T19:13:37.582Z,6.94
2018-11-13T19:16:08.758Z,6.90
2018-11-13T19:18:37.217Z,6.94
2018-11-13T19:21:06.461Z,6.95
2018-11-13T19:23:34.923Z,6.95
2018-11-13T19:26:03.316Z,6.93
2018-11-13T19:28:31.693Z,6.95
2018-11-13T19:31:00.147Z,6.99
2018-11-13T19:33:28.527Z,7.00
2018-11-13T19:35:57.039Z,7.04
2018-11-13T19:38:25.350Z,7.15
2018-11-13T19:40:53.750Z,7.16
2018-11-13T19:43:22.130Z,7.09
2018-11-13T19:45:50.536Z,7.04
2018-11-13T19:48:18.919Z,6.97
2018-11-13T19:50:47.357Z,6.97
2018-11-13T19:53:15.733Z,7.21
2018-11-13T19:55:44.151Z,7.35
2018-11-13T19:58:12.549Z,7.39
2018-11-13T20:00:40.961Z,7.44
2018-11-13T20:03:10.488Z,7.51
2018-11-13T20:05:38.893Z,7.57
2018-11-13T20:08:07.979Z,7.53
2018-11-13T20:10:36.918Z,7.54
2018-11-13T20:13:06.322Z,7.56
2018-11-13T20:15:35.344Z,7.58
2018-11-13T20:18:03.842Z,7.61
2018-11-13T20:20:33.150Z,7.60
2018-11-13T20:23:02.665Z,7.51
2018-11-13T20:25:32.414Z,7.45
2018-11-13T20:28:00.810Z,7.43
2018-11-13T20:30:31.535Z,7.44
2018-11-13T20:32:59.942Z,7.72
2018-11-13T20:35:28.337Z,7.91
2018-11-13T20:37:57.340Z,7.95
2018-11-13T20:40:27.053Z,7.82
2018-11-13T20:42:56.697Z,7.60
2018-11-13T20:45:25.165Z,7.48
2018-11-13T20:47:53.699Z,7.36
2018-11-13T20:50:23.517Z,7.20
2018-11-13T20:52:51.915Z,7.16
2018-11-13T20:55:20.348Z,7.17
2018-11-13T20:57:48.789Z,7.16
2018-11-13T21:00:20.899Z,7.09
2018-11-13T21:02:49.496Z,7.06
2018-11-13T21:05:18.025Z,7.13
2018-11-13T21:07:46.521Z,7.22
2018-11-13T21:10:20.719Z,7.27
2018-11-13T21:12:49.553Z,7.23
2018-11-13T21:15:19.133Z,7.27
2018-11-13T21:17:47.591Z,7.23
2018-11-13T21:20:17.069Z,7.15
2018-11-13T21:22:45.542Z,7.15
2018-11-13T21:25:15.392Z,7.14
2018-11-13T21:27:43.808Z,7.30
2018-11-13T21:30:16.429Z,7.44
2018-11-13T21:32:45.612Z,7.45
2018-11-13T21:35:14.556Z,7.53
2018-11-13T21:37:44.237Z,7.72
2018-11-13T21:40:15.986Z,7.87
2018-11-13T21:42:45.134Z,8.13
2018-11-13T21:45:14.236Z,8.29
2018-11-13T21:47:42.963Z,8.33
2018-11-13T21:50:13.975Z,8.48
2018-11-13T21:52:42.688Z,8.55
2018-11-13T21:55:13.002Z,8.62
2018-11-13T21:57:41.446Z,8.63
2018-11-13T22:00:16.805Z,8.61
2018-11-13T22:02:48.273Z,8.60
2018-11-13T22:05:16.665Z,8.62
2018-11-13T22:07:45.131Z,8.57
2018-11-13T22:10:13.514Z,8.50
2018-11-13T22:12:41.987Z,8.27
2018-11-13T22:15:12.725Z,8.05
2018-11-13T22:17:41.222Z,7.85
2018-11-13T22:20:11.505Z,7.72
2018-11-13T22:22:39.888Z,7.17
2018-11-13T22:25:10.290Z,6.92
2018-11-13T22:27:38.790Z,6.67
2018-11-13T22:30:08.390Z,6.46
2018-11-13T22:32:36.997Z,6.43
2018-11-13T22:35:06.745Z,6.42
2018-11-13T22:37:35.239Z,6.38
2018-11-13T22:40:03.710Z,6.43
2018-11-13T22:42:32.077Z,6.44
2018-11-13T22:45:00.433Z,6.46
2018-11-13T22:47:28.814Z,6.40
2018-11-13T22:49:57.182Z,6.43
2018-11-13T22:52:25.561Z,6.42
2018-11-13T22:54:53.957Z,6.40
2018-11-13T22:57:22.611Z,6.41
2018-11-13T22:59:51.432Z,6.37
2018-11-13T23:02:19.850Z,6.44
2018-11-13T23:04:48.272Z,6.46
2018-11-13T23:07:16.706Z,6.45
2018-11-13T23:09:45.150Z,6.30
2018-11-13T23:12:13.565Z,6.41
2018-11-13T23:14:41.957Z,6.37
2018-11-13T23:17:10.427Z,6.50
2018-11-13T23:19:38.814Z,6.51
2018-11-13T23:22:07.213Z,6.68
2018-11-13T23:24:35.585Z,6.90
2018-11-13T23:27:04.053Z,6.90
2018-11-13T23:29:32.445Z,6.87
2018-11-13T23:32:00.889Z,6.96
2018-11-13T23:34:29.291Z,6.95
2018-11-13T23:36:57.662Z,6.99
2018-11-13T23:39:26.090Z,6.86
2018-11-13T23:41:54.446Z,6.79
2018-11-13T23:44:22.872Z,6.67
2018-11-13T23:46:51.210Z,6.59
2018-11-13T23:49:19.614Z,6.50
2018-11-13T23:51:47.981Z,6.26
2018-11-13T23:54:16.373Z,5.84
2018-11-13T23:56:44.737Z,5.81
2018-11-13T23:59:13.116Z,5.68
